createdAt,value
2023-05-20T00:01:01.810Z,73.96
2023-05-20T00:03:29.827Z,74.20
2023-05-20T00:05:56.715Z,74.53
2023-05-20T00:08:23.252Z,74.46
2023-05-20T00:10:50.590Z,74.24
2023-05-20T00:13:17.112Z,73.16
2023-05-20T00:15:43.704Z,72.97
2023-05-20T00:18:10.237Z,73.50
2023-05-20T00:20:36.846Z,73.43
2023-05-20T00:23:03.316Z,72.71
2023-05-20T00:25:31.820Z,72.23
2023-05-20T00:27:58.457Z,72.29
2023-05-20T00:30:24.972Z,72.17
2023-05-20T00:32:51.518Z,72.05
2023-05-20T00:35:18.097Z,72.09
2023-05-20T00:37:44.657Z,71.99
2023-05-20T00:40:13.041Z,72.72
2023-05-20T00:42:41.620Z,72.29
2023-05-20T00:45:08.773Z,72.40
2023-05-20T00:47:36.666Z,72.55
2023-05-20T00:50:04.100Z,72.55
2023-05-20T00:52:31.948Z,72.65
2023-05-20T00:54:59.470Z,72.79
2023-05-20T00:57:26.409Z,72.27
2023-05-20T00:59:53.302Z,72.62
2023-05-20T01:02:20.225Z,72.56
2023-05-20T01:04:47.405Z,72.54
2023-05-20T01:07:15.859Z,72.46
2023-05-20T01:09:42.613Z,72.96
2023-05-20T01:12:20.800Z,72.57
2023-05-20T01:14:56.685Z,73.33
2023-05-20T01:17:26.935Z,73.28
2023-05-20T01:19:54.909Z,73.55
2023-05-20T01:22:28.292Z,73.11
2023-05-20T01:24:55.224Z,73.29
2023-05-20T01:27:25.139Z,73.82
2023-05-20T01:29:52.110Z,74.03
2023-05-20T01:32:40.603Z,74.17
2023-05-20T01:35:07.734Z,73.75
2023-05-20T01:37:37.104Z,73.86
2023-05-20T01:40:04.195Z,74.17
2023-05-20T01:42:31.147Z,73.26
2023-05-20T01:44:59.324Z,74.65
2023-05-20T01:47:26.502Z,73.96
2023-05-20T01:49:56.158Z,73.89
2023-05-20T01:52:23.561Z,74.01
2023-05-20T01:54:52.886Z,73.78
2023-05-20T01:57:23.482Z,74.31
2023-05-20T01:59:50.263Z,74.44
2023-05-20T02:02:17.093Z,74.31
2023-05-20T02:04:48.102Z,73.66
2023-05-20T02:07:18.805Z,73.53
2023-05-20T02:09:45.693Z,74.06
2023-05-20T02:12:16.480Z,72.65
2023-05-20T02:14:47.643Z,73.41
2023-05-20T02:17:16.469Z,73.40
2023-05-20T02:19:43.821Z,73.81
2023-05-20T02:22:10.497Z,74.25
2023-05-20T02:24:36.993Z,74.53
2023-05-20T02:27:04.827Z,74.96
2023-05-20T02:29:31.328Z,73.41
2023-05-20T02:31:58.323Z,74.67
2023-05-20T02:34:26.347Z,74.36
2023-05-20T02:36:53.105Z,75.04
2023-05-20T02:39:19.579Z,74.62
2023-05-20T02:41:46.102Z,75.46
2023-05-20T02:44:12.560Z,75.14
2023-05-20T02:46:39.168Z,75.29
2023-05-20T02:49:05.732Z,74.78
2023-05-20T02:51:33.376Z,74.70
2023-05-20T02:53:59.924Z,74.73
2023-05-20T02:56:27.167Z,74.72
2023-05-20T02:58:53.676Z,74.39
2023-05-20T03:01:20.327Z,75.67
2023-05-20T03:03:46.836Z,75.57
2023-05-20T03:06:13.365Z,75.97
2023-05-20T03:08:39.886Z,76.00
2023-05-20T03:11:06.939Z,76.20
2023-05-20T03:13:34.958Z,75.06
2023-05-20T03:16:01.748Z,75.48
2023-05-20T03:18:28.256Z,75.47
2023-05-20T03:20:54.762Z,75.11
2023-05-20T03:23:21.572Z,74.98
2023-05-20T03:25:48.281Z,74.66
2023-05-20T03:28:14.787Z,74.55
2023-05-20T03:30:41.444Z,73.19
2023-05-20T03:33:08.068Z,75.04
2023-05-20T03:35:34.797Z,74.99
2023-05-20T03:38:01.906Z,74.78
2023-05-20T03:40:28.488Z,74.85
2023-05-20T03:42:55.049Z,75.12
2023-05-20T03:45:21.586Z,75.30
2023-05-20T03:47:48.092Z,74.99
2023-05-20T03:50:14.665Z,76.51
2023-05-20T03:52:41.176Z,76.70
2023-05-20T03:55:08.138Z,75.40
2023-05-20T03:57:36.536Z,74.65
2023-05-20T04:00:08.758Z,74.72
2023-05-20T04:02:35.677Z,73.82
2023-05-20T04:05:02.476Z,73.74
2023-05-20T04:07:29.959Z,73.45
2023-05-20T04:09:56.679Z,73.99
2023-05-20T04:12:23.192Z,72.94
2023-05-20T04:14:50.150Z,72.79
2023-05-20T04:17:16.823Z,72.97
2023-05-20T04:19:45.113Z,72.92
2023-05-20T04:22:11.663Z,74.03
2023-05-20T04:24:38.152Z,73.82
2023-05-20T04:27:05.950Z,73.80
2023-05-20T04:29:34.369Z,74.11
2023-05-20T04:32:01.330Z,73.67
2023-05-20T04:34:34.626Z,73.42
2023-05-20T04:37:01.464Z,72.59
2023-05-20T04:39:27.936Z,73.71
2023-05-20T04:41:55.147Z,73.53
2023-05-20T04:44:22.750Z,72.73
2023-05-20T04:46:49.233Z,72.92
2023-05-20T04:49:15.742Z,73.05
2023-05-20T04:51:43.866Z,74.21
2023-05-20T04:54:10.530Z,72.89
2023-05-20T04:56:36.990Z,74.34
2023-05-20T04:59:03.512Z,73.51
2023-05-20T05:01:30.058Z,73.89
2023-05-20T05:03:56.639Z,73.30
2023-05-20T05:06:23.120Z,71.76
2023-05-20T05:08:49.636Z,72.72
2023-05-20T05:11:16.111Z,71.77
2023-05-20T05:13:42.644Z,71.41
2023-05-20T05:16:09.377Z,70.76
2023-05-20T05:18:36.014Z,72.01
2023-05-20T05:21:03.683Z,70.85
2023-05-20T05:23:30.533Z,70.82
2023-05-20T05:25:57.322Z,69.83
2023-05-20T05:28:23.988Z,69.92
2023-05-20T05:30:51.026Z,70.25
2023-05-20T05:33:17.759Z,69.93
2023-05-20T05:35:44.626Z,69.44
2023-05-20T05:38:11.301Z,70.50
2023-05-20T05:40:37.835Z,70.19
2023-05-20T05:43:04.404Z,71.31
2023-05-20T05:45:31.183Z,70.65
2023-05-20T05:47:57.981Z,70.42
2023-05-20T05:50:24.576Z,70.88
2023-05-20T05:52:51.086Z,69.60
2023-05-20T05:55:18.469Z,69.97
2023-05-20T05:57:45.339Z,70.55
2023-05-20T06:00:12.312Z,70.72
2023-05-20T06:02:38.878Z,70.78
2023-05-20T06:05:06.100Z,71.30
2023-05-20T06:07:32.593Z,70.91
2023-05-20T06:09:59.534Z,69.12
2023-05-20T06:12:26.179Z,70.12
2023-05-20T06:14:52.690Z,69.84
2023-05-20T06:17:19.256Z,68.63
2023-05-20T06:19:46.292Z,69.33
2023-05-20T06:22:16.187Z,69.36
2023-05-20T06:24:42.730Z,71.18
2023-05-20T06:27:09.226Z,69.77
2023-05-20T06:29:35.727Z,67.39
2023-05-20T06:32:02.225Z,66.26
2023-05-20T06:34:28.939Z,66.91
2023-05-20T06:36:56.131Z,66.17
2023-05-20T06:39:22.676Z,67.25
2023-05-20T06:41:49.236Z,68.72
2023-05-20T06:44:16.830Z,68.60
2023-05-20T06:46:43.489Z,69.59
2023-05-20T06:49:10.241Z,69.34
2023-05-20T06:51:36.760Z,68.17
2023-05-20T06:54:03.386Z,68.21
2023-05-20T06:56:30.515Z,68.86
2023-05-20T06:58:57.043Z,69.00
2023-05-20T07:01:23.570Z,66.44
2023-05-20T07:03:50.309Z,67.37
2023-05-20T07:06:16.811Z,66.83
2023-05-20T07:08:43.464Z,65.76
2023-05-20T07:11:09.969Z,63.50
2023-05-20T07:13:36.613Z,64.46
2023-05-20T07:16:03.333Z,64.72
2023-05-20T07:18:30.087Z,65.04
2023-05-20T07:20:59.544Z,63.61
2023-05-20T07:23:26.125Z,62.91
2023-05-20T07:25:53.690Z,64.32
2023-05-20T07:28:21.118Z,63.66
2023-05-20T07:30:50.205Z,64.14
2023-05-20T07:33:17.732Z,62.60
2023-05-20T07:35:45.160Z,61.89
2023-05-20T07:38:12.708Z,62.09
2023-05-20T07:40:40.692Z,61.17
2023-05-20T07:43:08.517Z,60.65
2023-05-20T07:45:36.921Z,60.67
2023-05-20T07:48:04.711Z,59.54
2023-05-20T07:50:31.404Z,57.98
2023-05-20T07:52:57.917Z,58.62
2023-05-20T07:55:24.456Z,57.87
2023-05-20T07:57:51.249Z,58.58
2023-05-20T08:00:17.953Z,59.77
2023-05-20T08:02:44.552Z,58.70
2023-05-20T08:05:11.252Z,56.60
2023-05-20T08:07:37.755Z,58.08
2023-05-20T08:10:04.618Z,57.87
2023-05-20T08:12:31.364Z,56.21
2023-05-20T08:14:57.873Z,56.36
2023-05-20T08:17:24.387Z,54.89
2023-05-20T08:19:51.021Z,54.14
2023-05-20T08:22:17.539Z,55.99
2023-05-20T08:24:44.041Z,55.62
2023-05-20T08:27:10.505Z,56.25
2023-05-20T08:29:37.007Z,55.04
2023-05-20T08:32:03.605Z,55.68
2023-05-20T08:34:30.139Z,54.94
2023-05-20T08:36:57.827Z,55.75
2023-05-20T08:39:25.699Z,55.54
2023-05-20T08:41:52.356Z,53.94
2023-05-20T08:44:19.662Z,53.40
2023-05-20T08:46:46.491Z,50.56
2023-05-20T08:49:13.111Z,51.19
2023-05-20T08:51:39.801Z,48.28
2023-05-20T08:54:07.150Z,50.02
2023-05-20T08:56:33.932Z,48.03
2023-05-20T08:59:00.808Z,47.32
2023-05-20T09:01:27.338Z,47.24
2023-05-20T09:03:53.881Z,47.28
2023-05-20T09:06:20.424Z,49.15
2023-05-20T09:08:49.517Z,48.01
2023-05-20T09:11:16.482Z,47.77
2023-05-20T09:13:43.496Z,47.07
2023-05-20T09:16:11.185Z,46.59
2023-05-20T09:18:41.560Z,48.30
2023-05-20T09:21:11.777Z,49.31
2023-05-20T09:23:38.648Z,49.89
2023-05-20T09:26:05.248Z,48.83
2023-05-20T09:28:31.871Z,48.10
2023-05-20T09:31:01.642Z,45.46
2023-05-20T09:33:32.124Z,46.15
2023-05-20T09:36:07.035Z,47.46
2023-05-20T09:38:39.107Z,46.63
2023-05-20T09:41:13.910Z,46.27
2023-05-20T09:43:40.897Z,47.83
2023-05-20T09:46:08.330Z,46.33
2023-05-20T09:48:38.208Z,45.46
2023-05-20T09:51:06.205Z,43.68
2023-05-20T09:53:32.841Z,45.39
2023-05-20T09:55:59.383Z,43.92
2023-05-20T09:58:26.067Z,43.07
2023-05-20T10:00:54.076Z,44.85
2023-05-20T10:03:28.078Z,48.28
2023-05-20T10:06:06.471Z,49.60
2023-05-20T10:09:11.842Z,50.07
2023-05-20T10:11:52.344Z,48.81
2023-05-20T10:14:40.298Z,49.79
2023-05-20T10:17:23.792Z,50.00
2023-05-20T10:19:51.178Z,48.27
2023-05-20T10:22:28.424Z,48.76
2023-05-20T10:25:07.288Z,49.01
2023-05-20T10:27:47.277Z,48.32
2023-05-20T10:30:21.351Z,46.92
2023-05-20T10:32:57.366Z,45.96
2023-05-20T10:35:28.603Z,46.42
2023-05-20T10:38:07.857Z,47.01
2023-05-20T10:40:34.714Z,48.19
2023-05-20T10:43:10.506Z,49.22
2023-05-20T10:46:00.990Z,48.88
2023-05-20T10:48:32.258Z,47.37
2023-05-20T10:51:08.974Z,46.78
2023-05-20T10:53:47.030Z,46.38
2023-05-20T10:56:30.786Z,48.49
2023-05-20T10:59:06.002Z,48.00
2023-05-20T11:01:34.351Z,47.45
2023-05-20T11:04:04.641Z,48.94
2023-05-20T11:06:32.027Z,48.50
2023-05-20T11:09:06.844Z,48.97
2023-05-20T11:11:38.401Z,50.79
2023-05-20T11:14:05.578Z,49.76
2023-05-20T11:16:32.395Z,48.33
2023-05-20T11:18:59.103Z,50.32
2023-05-20T11:21:25.870Z,50.94
2023-05-20T11:23:52.641Z,49.56
2023-05-20T11:26:21.279Z,48.38
2023-05-20T11:28:47.852Z,48.50
2023-05-20T11:31:14.452Z,47.93
2023-05-20T11:33:44.003Z,46.77
2023-05-20T11:36:23.872Z,45.47
2023-05-20T11:38:54.440Z,45.19
2023-05-20T11:41:27.759Z,48.22
2023-05-20T11:44:01.126Z,48.54
2023-05-20T11:46:28.133Z,48.87
2023-05-20T11:48:55.313Z,49.44
2023-05-20T11:51:27.112Z,50.15
2023-05-20T11:53:54.190Z,48.82
2023-05-20T11:56:21.964Z,46.10
2023-05-20T11:58:48.602Z,44.45
2023-05-20T12:03:47.550Z,46.67
2023-05-20T12:06:14.240Z,47.89
2023-05-20T12:08:40.906Z,48.93
2023-05-20T12:11:07.503Z,49.70
2023-05-20T12:13:35.465Z,49.69
2023-05-20T12:16:02.261Z,50.69
2023-05-20T12:18:28.887Z,51.07
2023-05-20T12:20:55.543Z,50.34
2023-05-20T12:23:22.053Z,51.39
2023-05-20T12:25:50.057Z,52.34
2023-05-20T12:28:17.798Z,51.60
2023-05-20T12:30:44.450Z,51.73
2023-05-20T12:33:10.982Z,50.87
2023-05-20T12:35:42.047Z,50.73
2023-05-20T12:38:08.965Z,52.07
2023-05-20T12:40:36.645Z,52.72
2023-05-20T12:43:04.395Z,53.39
2023-05-20T12:45:31.053Z,54.27
2023-05-20T12:47:57.873Z,53.83
2023-05-20T12:50:24.746Z,52.96
2023-05-20T12:52:51.398Z,54.18
2023-05-20T12:55:17.996Z,52.82
2023-05-20T12:57:45.071Z,52.16
2023-05-20T13:00:12.684Z,51.60
2023-05-20T13:02:40.248Z,52.32
2023-05-20T13:05:07.073Z,53.36
2023-05-20T13:07:34.011Z,52.31
2023-05-20T13:10:00.690Z,51.50
2023-05-20T13:12:27.371Z,53.74
2023-05-20T13:14:53.900Z,52.59
2023-05-20T13:17:20.368Z,53.85
2023-05-20T13:19:46.917Z,53.59
2023-05-20T13:22:13.508Z,53.79
2023-05-20T13:24:40.068Z,54.18
2023-05-20T13:27:06.564Z,54.80
2023-05-20T13:29:33.086Z,55.42
2023-05-20T13:32:01.776Z,54.95
2023-05-20T13:34:30.503Z,55.84
2023-05-20T13:36:57.157Z,56.58
2023-05-20T13:39:23.708Z,56.68
2023-05-20T13:41:50.857Z,55.02
2023-05-20T13:44:17.353Z,53.95
2023-05-20T13:46:43.965Z,54.40
2023-05-20T13:49:10.587Z,55.47
2023-05-20T13:51:37.102Z,55.86
2023-05-20T13:54:03.793Z,55.90
2023-05-20T13:56:30.471Z,55.69
2023-05-20T13:58:57.322Z,55.07
2023-05-20T14:01:24.066Z,55.06
2023-05-20T14:03:50.941Z,54.37
2023-05-20T14:06:19.038Z,54.95
2023-05-20T14:08:46.216Z,55.10
2023-05-20T14:11:13.009Z,56.42
2023-05-20T14:13:39.522Z,55.38
2023-05-20T14:16:06.319Z,56.61
2023-05-20T14:18:32.849Z,55.81
2023-05-20T14:20:59.760Z,57.12
2023-05-20T14:23:26.232Z,56.11
2023-05-20T14:25:52.741Z,56.55
2023-05-20T14:28:19.218Z,55.65
2023-05-20T14:30:45.915Z,56.43
2023-05-20T14:33:12.738Z,56.90
2023-05-20T14:35:39.434Z,55.68
2023-05-20T14:38:06.962Z,55.95
2023-05-20T14:40:33.849Z,56.09
2023-05-20T14:43:00.754Z,55.69
2023-05-20T14:45:27.551Z,54.75
2023-05-20T14:47:54.151Z,54.45
2023-05-20T14:50:20.847Z,54.10
2023-05-20T14:52:47.485Z,54.06
2023-05-20T14:55:14.180Z,54.10
2023-05-20T14:57:41.044Z,53.12
2023-05-20T15:00:12.567Z,52.90
2023-05-20T15:02:39.260Z,54.59
2023-05-20T15:05:06.505Z,55.30
2023-05-20T15:07:33.242Z,53.98
2023-05-20T15:09:59.907Z,54.00
2023-05-20T15:12:26.537Z,54.25
2023-05-20T15:14:53.628Z,55.60
2023-05-20T15:17:20.194Z,54.82
2023-05-20T15:19:46.792Z,54.29
2023-05-20T15:22:14.196Z,55.02
2023-05-20T15:24:40.842Z,55.27
2023-05-20T15:27:07.494Z,54.11
2023-05-20T15:29:34.351Z,54.70
2023-05-20T15:32:01.267Z,55.11
2023-05-20T15:34:27.902Z,54.73
2023-05-20T15:36:54.605Z,54.61
2023-05-20T15:39:21.430Z,55.06
2023-05-20T15:41:49.997Z,54.70
2023-05-20T15:44:16.674Z,55.80
2023-05-20T15:46:44.043Z,54.68
2023-05-20T15:49:11.814Z,54.79
2023-05-20T15:51:39.868Z,54.98
2023-05-20T15:54:08.015Z,55.26
2023-05-20T15:56:35.214Z,55.17
2023-05-20T15:59:01.875Z,53.62
2023-05-20T16:01:29.416Z,54.32
2023-05-20T16:03:58.134Z,53.95
2023-05-20T16:06:25.500Z,54.58
2023-05-20T16:08:52.164Z,53.23
2023-05-20T16:11:19.984Z,54.68
2023-05-20T16:13:46.999Z,53.93
2023-05-20T16:16:14.288Z,54.24
2023-05-20T16:18:42.108Z,52.89
2023-05-20T16:21:09.006Z,53.69
2023-05-20T16:23:37.405Z,53.66
2023-05-20T16:26:04.632Z,53.64
2023-05-20T16:28:31.234Z,53.01
2023-05-20T16:30:58.268Z,53.02
2023-05-20T16:33:25.282Z,53.41
2023-05-20T16:35:52.508Z,53.05
2023-05-20T16:38:19.436Z,52.61
2023-05-20T16:40:46.094Z,52.40
2023-05-20T16:43:12.760Z,52.54
2023-05-20T16:45:39.370Z,53.14
2023-05-20T16:48:06.102Z,53.37
2023-05-20T16:50:33.094Z,54.00
2023-05-20T16:52:59.954Z,54.16
2023-05-20T16:55:26.724Z,54.71
2023-05-20T16:57:53.568Z,54.24
2023-05-20T17:00:20.955Z,55.43
2023-05-20T17:02:47.660Z,54.51
2023-05-20T17:05:18.420Z,54.19
2023-05-20T17:07:45.060Z,55.37
2023-05-20T17:10:11.800Z,54.98
2023-05-20T17:12:38.406Z,54.92
2023-05-20T17:15:06.162Z,54.29
2023-05-20T17:17:32.714Z,54.35
2023-05-20T17:19:59.228Z,55.21
2023-05-20T17:22:26.052Z,53.93
2023-05-20T17:25:01.749Z,54.15
2023-05-20T17:27:29.658Z,54.40
2023-05-20T17:29:56.363Z,54.46
2023-05-20T17:32:22.886Z,54.50
2023-05-20T17:34:49.376Z,54.40
2023-05-20T17:37:15.911Z,55.34
2023-05-20T17:39:43.097Z,55.95
2023-05-20T17:42:09.655Z,55.35
2023-05-20T17:44:36.328Z,55.36
2023-05-20T17:47:02.838Z,56.21
2023-05-20T17:49:29.391Z,55.75
2023-05-20T17:51:55.935Z,55.71
2023-05-20T17:54:22.445Z,55.18
2023-05-20T17:56:50.968Z,55.75
2023-05-20T17:59:17.493Z,56.50
2023-05-20T18:01:44.829Z,57.71
2023-05-20T18:04:11.535Z,55.78
2023-05-20T18:06:38.122Z,56.29
2023-05-20T18:09:06.131Z,56.62
2023-05-20T18:11:33.685Z,57.34
2023-05-20T18:14:01.612Z,57.01
2023-05-20T18:16:29.654Z,57.21
2023-05-20T18:18:57.067Z,56.60
2023-05-20T18:21:24.280Z,58.11
2023-05-20T18:23:51.224Z,57.65
2023-05-20T18:26:17.776Z,57.75
2023-05-20T18:28:44.455Z,57.93
2023-05-20T18:31:11.472Z,57.92
2023-05-20T18:33:38.102Z,58.70
2023-05-20T18:36:06.073Z,58.58
2023-05-20T18:38:32.897Z,57.65
2023-05-20T18:41:00.097Z,57.39
2023-05-20T18:43:26.684Z,57.34
2023-05-20T18:45:53.390Z,58.54
2023-05-20T18:48:26.641Z,58.86
2023-05-20T18:50:54.663Z,58.55
2023-05-20T18:53:21.195Z,58.81
2023-05-20T18:55:48.170Z,58.69
2023-05-20T18:58:14.725Z,59.76
2023-05-20T19:00:41.858Z,59.00
2023-05-20T19:03:08.466Z,58.67
2023-05-20T19:05:35.305Z,59.55
2023-05-20T19:08:02.692Z,59.01
2023-05-20T19:10:29.567Z,59.08
2023-05-20T19:12:56.605Z,59.86
2023-05-20T19:15:23.220Z,60.27
2023-05-20T19:17:49.852Z,59.65
2023-05-20T19:20:16.604Z,60.45
2023-05-20T19:22:43.093Z,60.30
2023-05-20T19:25:09.960Z,60.20
2023-05-20T19:27:36.739Z,59.75
2023-05-20T19:30:03.968Z,59.91
2023-05-20T19:32:30.636Z,59.92
2023-05-20T19:34:57.254Z,59.85
2023-05-20T19:37:23.923Z,61.07
2023-05-20T19:39:50.464Z,61.87
2023-05-20T19:42:17.067Z,61.80
2023-05-20T19:44:46.526Z,61.75
2023-05-20T19:47:13.196Z,61.55
2023-05-20T19:49:39.745Z,60.84
2023-05-20T19:52:07.020Z,61.77
2023-05-20T19:54:33.801Z,62.01
2023-05-20T19:57:00.337Z,62.68
2023-05-20T19:59:26.966Z,62.67
2023-05-20T20:01:53.735Z,62.41
2023-05-20T20:04:20.468Z,63.01
2023-05-20T20:06:48.091Z,62.20
2023-05-20T20:09:15.264Z,62.58
2023-05-20T20:11:41.860Z,62.30
2023-05-20T20:14:08.539Z,63.15
2023-05-20T20:16:35.959Z,62.29
2023-05-20T20:19:02.879Z,62.09
2023-05-20T20:21:29.446Z,63.74
2023-05-20T20:23:56.068Z,63.84
2023-05-20T20:26:26.723Z,63.86
2023-05-20T20:28:53.269Z,63.46
2023-05-20T20:31:19.967Z,63.63
2023-05-20T20:33:47.503Z,63.18
2023-05-20T20:36:14.272Z,63.92
2023-05-20T20:38:47.067Z,63.89
2023-05-20T20:41:16.164Z,63.95
2023-05-20T20:43:45.722Z,63.94
2023-05-20T20:46:15.132Z,63.29
2023-05-20T20:48:45.929Z,63.44
2023-05-20T20:51:16.525Z,64.33
2023-05-20T20:53:43.371Z,64.71
2023-05-20T20:56:10.153Z,64.34
2023-05-20T20:58:38.132Z,63.75
2023-05-20T21:01:05.740Z,63.91
2023-05-20T21:03:40.404Z,64.03
2023-05-20T21:06:08.193Z,64.94
2023-05-20T21:08:34.879Z,63.84
2023-05-20T21:11:01.542Z,63.80
2023-05-20T21:13:28.796Z,64.24
2023-05-20T21:15:55.588Z,64.55
2023-05-20T21:18:23.617Z,63.74
2023-05-20T21:20:51.496Z,64.38
2023-05-20T21:23:21.902Z,64.08
2023-05-20T21:25:49.005Z,64.11
2023-05-20T21:28:16.098Z,63.32
2023-05-20T21:30:42.632Z,63.80
2023-05-20T21:33:09.193Z,63.67
2023-05-20T21:35:36.117Z,63.91
2023-05-20T21:38:02.786Z,63.69
2023-05-20T21:40:29.303Z,63.97
2023-05-20T21:42:55.914Z,64.72
2023-05-20T21:45:22.490Z,63.70
2023-05-20T21:47:49.103Z,63.88
2023-05-20T21:50:15.720Z,63.90
2023-05-20T21:52:43.033Z,63.85
2023-05-20T21:55:10.607Z,64.80
2023-05-20T21:57:37.586Z,63.75
2023-05-20T22:00:09.926Z,65.01
2023-05-20T22:02:37.089Z,64.99
2023-05-20T22:05:04.861Z,65.25
2023-05-20T22:07:31.805Z,65.30
2023-05-20T22:09:58.439Z,64.43
2023-05-20T22:12:25.058Z,64.00
2023-05-20T22:14:51.540Z,64.17
2023-05-20T22:17:18.085Z,65.67
2023-05-20T22:19:44.630Z,64.90
2023-05-20T22:22:11.186Z,63.85
2023-05-20T22:24:37.711Z,64.23
2023-05-20T22:27:04.597Z,63.94
2023-05-20T22:29:32.550Z,63.34
2023-05-20T22:31:59.548Z,64.30
2023-05-20T22:34:26.212Z,63.80
2023-05-20T22:36:53.972Z,64.38
2023-05-20T22:39:21.582Z,65.34
2023-05-20T22:41:49.625Z,63.83
2023-05-20T22:44:16.975Z,64.24
2023-05-20T22:46:43.842Z,66.02
2023-05-20T22:49:12.899Z,65.59
2023-05-20T22:51:41.901Z,66.34
2023-05-20T22:54:09.753Z,67.00
2023-05-20T22:56:36.870Z,66.27
2023-05-20T22:59:03.946Z,66.17
2023-05-20T23:01:32.009Z,67.07
2023-05-20T23:03:59.154Z,66.29
2023-05-20T23:06:27.066Z,66.81
2023-05-20T23:08:54.749Z,66.36
2023-05-20T23:11:29.401Z,66.56
2023-05-20T23:13:56.754Z,65.49
2023-05-20T23:16:26.311Z,66.39
2023-05-20T23:18:53.376Z,65.94
2023-05-20T23:21:19.949Z,65.31
2023-05-20T23:23:46.625Z,64.97
2023-05-20T23:26:13.134Z,65.70
2023-05-20T23:28:39.898Z,65.05
2023-05-20T23:31:06.774Z,64.67
2023-05-20T23:33:33.430Z,63.95
2023-05-20T23:36:00.150Z,64.84
2023-05-20T23:38:26.824Z,65.65
2023-05-20T23:40:53.454Z,65.94
2023-05-20T23:43:20.899Z,65.69
2023-05-20T23:45:48.420Z,64.93
2023-05-20T23:48:17.846Z,65.37
2023-05-20T23:50:46.648Z,64.23
2023-05-20T23:53:13.337Z,64.90
2023-05-20T23:55:39.979Z,65.37
2023-05-20T23:58:06.500Z,65.91
